Time;durP1;ratioP1;P1;durP2;ratioP2;P2;SDS_P1;SDS_P2;PMS_P1;PMS_P2;Temp;Humidity;BMP_temperature;BMP_pressure;BME280_temperature;BME280_humidity;BME280_pressure;Samples;Min_cycle;Max_cycle;Signal;HPM_P1;HPM_P2
2023/12/31 00:01:47;;;;;;;;;;;;;;;8.54;100.00;100367.44;5010166;28;19999;-67
2023/12/31 00:04:12;;;;;;;;;;;;;;;8.56;100.00;100368.94;5018196;28;19928;-67
2023/12/31 00:06:38;;;;;;;;;;;;;;;8.58;100.00;100356.34;5012821;28;20026;-68
2023/12/31 00:09:03;;;;;;;;;;;;;;;8.58;100.00;100343.13;5016091;28;19926;-68
2023/12/31 00:11:28;;;;;;;;;;;;;;;8.57;100.00;100338.00;5014735;28;20450;-67
2023/12/31 00:13:53;;;;;;;;;;;;;;;8.58;100.00;100337.00;5019111;28;19927;-69
2023/12/31 00:16:18;;;;;;;;;;;;;;;8.62;100.00;100338.31;5017447;28;19921;-68
2023/12/31 00:18:43;;;;;;;;;;;;;;;8.63;100.00;100327.56;5017216;28;20016;-66
2023/12/31 00:21:09;;;;;;;;;;;;;;;8.63;100.00;100324.06;5011227;28;19999;-66
2023/12/31 00:23:35;;;;;;;;;;;;;;;8.65;100.00;100314.97;5011496;28;19917;-67
2023/12/31 00:26:00;;;;;;;;;;;;;;;8.68;100.00;100309.38;5012159;28;19921;-67
2023/12/31 00:28:26;;;;;;;;;;;;;;;8.74;100.00;100299.91;5014757;28;19940;-66
2023/12/31 00:30:51;;;;;;;;;;;;;;;8.74;100.00;100294.59;5014216;28;20000;-67
2023/12/31 00:33:16;;;;;;;;;;;;;;;8.75;99.80;100298.91;5017022;28;19925;-67
2023/12/31 00:35:41;;;;;;;;;;;;;;;8.78;98.96;100295.09;5013082;28;19967;-67
2023/12/31 00:38:06;;;;;;;;;;;;;;;8.81;98.51;100286.78;5009293;28;20012;-67
2023/12/31 00:40:32;;;;;;;;;;;;;;;8.84;97.94;100281.97;5013772;28;20604;-66
2023/12/31 00:42:57;;;;;;;;;;;;;;;8.82;97.47;100268.09;5016022;28;19920;-68
2023/12/31 00:45:22;;;;;;;;;;;;;;;8.84;97.27;100268.75;5010975;28;19921;-65
2023/12/31 00:47:47;;;;;;;;;;;;;;;8.86;97.09;100260.63;5019804;28;19948;-65
2023/12/31 00:50:13;;;;;;;;;;;;;;;8.83;96.58;100250.38;5011139;28;19931;-65
2023/12/31 00:52:38;;;;;;;;;;;;;;;8.85;96.11;100256.31;5011310;28;19932;-65
2023/12/31 00:55:03;;;;;;;;;;;;;;;8.83;95.96;100253.03;5008698;28;19925;-67
2023/12/31 00:57:29;;;;;;;;;;;;;;;8.83;95.92;100261.78;5009313;28;19925;-68
2023/12/31 00:59:54;;;;;;;;;;;;;;;8.89;95.91;100257.63;5006021;28;20375;-64
2023/12/31 01:02:20;;;;;;;;;;;;;;;8.90;95.70;100246.84;5011106;28;19917;-70
2023/12/31 01:04:45;;;;;;;;;;;;;;;8.95;95.71;100246.31;5006160;28;19924;-66
2023/12/31 01:07:10;;;;;;;;;;;;;;;8.94;95.16;100248.16;5016297;28;19967;-66
2023/12/31 01:09:36;;;;;;;;;;;;;;;8.95;95.14;100252.44;5015010;28;19932;-67
2023/12/31 01:12:01;;;;;;;;;;;;;;;8.97;94.93;100245.19;5006781;28;19921;-67
2023/12/31 01:14:26;;;;;;;;;;;;;;;8.98;95.26;100238.88;5004931;28;20030;-66
2023/12/31 01:16:51;;;;;;;;;;;;;;;8.96;95.20;100237.38;5020612;28;19952;-69
2023/12/31 01:19:17;;;;;;;;;;;;;;;8.95;94.62;100227.78;5012310;28;20652;-67
2023/12/31 01:21:42;;;;;;;;;;;;;;;8.94;94.08;100219.03;5021427;28;21277;-68
2023/12/31 01:24:07;;;;;;;;;;;;;;;8.93;94.19;100205.97;5018093;28;19951;-67
2023/12/31 01:26:33;;;;;;;;;;;;;;;8.89;94.00;100208.13;5014403;28;20023;-67
2023/12/31 01:28:58;;;;;;;;;;;;;;;8.88;94.08;100206.50;5021166;28;19935;-66
2023/12/31 01:31:24;;;;;;;;;;;;;;;8.84;93.98;100194.59;5016829;28;19964;-66
2023/12/31 01:33:49;;;;;;;;;;;;;;;8.86;93.63;100194.44;5012573;28;19924;-66
2023/12/31 01:36:17;;;;;;;;;;;;;;;8.83;93.05;100195.59;5015761;28;19960;-66
2023/12/31 01:38:43;;;;;;;;;;;;;;;8.83;92.86;100195.59;5010252;28;20782;-67
2023/12/31 01:41:09;;;;;;;;;;;;;;;8.86;93.11;100186.47;5020304;28;19982;-67
2023/12/31 01:43:35;;;;;;;;;;;;;;;8.85;93.25;100185.66;5014919;28;20402;-68
2023/12/31 01:46:00;;;;;;;;;;;;;;;8.85;93.01;100183.00;5012981;28;20585;-68
2023/12/31 01:48:26;;;;;;;;;;;;;;;8.82;92.70;100159.53;5017458;28;19925;-66
2023/12/31 01:50:51;;;;;;;;;;;;;;;8.83;92.53;100161.19;5022865;28;19921;-66
2023/12/31 01:53:18;;;;;;;;;;;;;;;8.78;91.70;100155.59;5019193;28;20475;-67
2023/12/31 01:55:43;;;;;;;;;;;;;;;8.80;91.70;100156.25;5013996;28;19925;-67
2023/12/31 01:58:09;;;;;;;;;;;;;;;8.79;91.76;100157.25;5016852;28;19923;-66
2023/12/31 02:00:35;;;;;;;;;;;;;;;8.79;91.16;100149.31;5010276;28;20009;-67
2023/12/31 02:03:00;;;;;;;;;;;;;;;8.82;91.37;100145.47;5014855;28;19917;-67
2023/12/31 02:05:25;;;;;;;;;;;;;;;8.82;91.77;100148.13;5010827;28;19923;-71
2023/12/31 02:07:51;;;;;;;;;;;;;;;8.82;91.19;100134.88;5014159;28;20127;-67
2023/12/31 02:10:16;;;;;;;;;;;;;;;8.80;91.12;100136.88;5015626;28;19927;-68
2023/12/31 02:12:41;;;;;;;;;;;;;;;8.80;90.98;100124.47;5015581;28;19917;-66
2023/12/31 02:15:08;;;;;;;;;;;;;;;8.80;91.30;100124.47;5019353;28;19917;-66
2023/12/31 02:17:33;;;;;;;;;;;;;;;8.79;90.80;100116.72;5009929;28;19921;-67
2023/12/31 02:19:59;;;;;;;;;;;;;;;8.76;90.52;100107.31;5016115;28;19925;-69
2023/12/31 02:22:25;;;;;;;;;;;;;;;8.77;90.42;100095.72;5015383;28;19971;-66
2023/12/31 02:24:51;;;;;;;;;;;;;;;8.75;90.44;100103.00;5014970;28;19939;-66
2023/12/31 02:27:16;;;;;;;;;;;;;;;8.75;90.21;100096.88;4949171;28;1793155;-67
2023/12/31 02:29:42;;;;;;;;;;;;;;;8.77;90.40;100102.84;5017146;28;20039;-66
2023/12/31 02:32:07;;;;;;;;;;;;;;;8.79;90.02;100085.75;5011392;28;19925;-67
2023/12/31 02:34:32;;;;;;;;;;;;;;;8.79;90.53;100083.13;5014661;28;19968;-66
2023/12/31 02:36:58;;;;;;;;;;;;;;;8.76;90.07;100077.34;5017105;28;19921;-67
2023/12/31 02:39:23;;;;;;;;;;;;;;;8.75;90.31;100063.31;5011201;28;19925;-68
2023/12/31 02:41:48;;;;;;;;;;;;;;;8.73;90.37;100056.53;5016629;28;20404;-66
2023/12/31 02:44:13;;;;;;;;;;;;;;;8.71;89.93;100053.25;5010691;28;20649;-66
2023/12/31 02:46:39;;;;;;;;;;;;;;;8.70;90.20;100041.84;5009243;28;19965;-67
2023/12/31 02:49:06;;;;;;;;;;;;;;;8.68;90.07;100034.06;5014749;28;20378;-66
2023/12/31 02:51:31;;;;;;;;;;;;;;;8.69;90.36;100034.91;5012467;28;20417;-70
2023/12/31 02:53:57;;;;;;;;;;;;;;;8.69;89.82;100026.97;5011181;28;20398;-67
2023/12/31 02:56:22;;;;;;;;;;;;;;;8.70;90.02;100015.38;5008750;28;19948;-66
2023/12/31 02:58:47;;;;;;;;;;;;;;;8.72;89.79;100012.53;5007579;28;20036;-68
2023/12/31 03:01:12;;;;;;;;;;;;;;;8.72;89.97;100025.78;5011792;28;19920;-66
2023/12/31 03:03:38;;;;;;;;;;;;;;;8.69;89.76;100013.72;5011145;28;19940;-67
2023/12/31 03:06:03;;;;;;;;;;;;;;;8.71;89.60;100014.38;5014170;28;20000;-67
2023/12/31 03:08:28;;;;;;;;;;;;;;;8.72;89.73;100005.44;5012046;28;19925;-66
2023/12/31 03:10:53;;;;;;;;;;;;;;;8.71;89.76;99998.50;5010902;28;19925;-69
2023/12/31 03:13:19;;;;;;;;;;;;;;;8.72;89.89;99986.06;5007814;28;19925;-67
2023/12/31 03:15:44;;;;;;;;;;;;;;;8.71;89.96;99995.84;5012865;28;19979;-67
2023/12/31 03:18:09;;;;;;;;;;;;;;;8.68;89.81;99986.44;5007425;28;20753;-66
2023/12/31 03:20:34;;;;;;;;;;;;;;;8.67;90.02;99976.84;5009078;28;19925;-66
2023/12/31 03:23:00;;;;;;;;;;;;;;;8.67;90.41;99962.75;5019401;28;19928;-66
2023/12/31 03:25:25;;;;;;;;;;;;;;;8.67;89.82;99966.25;5017970;28;19921;-68
2023/12/31 03:27:50;;;;;;;;;;;;;;;8.68;89.90;99956.50;5020064;28;19921;-67
2023/12/31 03:30:15;;;;;;;;;;;;;;;8.66;89.83;99954.00;5021808;28;19944;-67
2023/12/31 03:32:40;;;;;;;;;;;;;;;8.62;89.82;99936.84;5017217;28;19980;-68
2023/12/31 03:35:06;;;;;;;;;;;;;;;8.63;89.83;99929.72;5023912;28;19928;-67
2023/12/31 03:37:32;;;;;;;;;;;;;;;8.58;89.63;99921.50;5020780;28;20735;-67
2023/12/31 03:39:57;;;;;;;;;;;;;;;8.61;89.66;99915.84;5022355;28;19960;-66
2023/12/31 03:42:22;;;;;;;;;;;;;;;8.61;89.49;99908.72;5018717;28;20335;-68
2023/12/31 03:44:47;;;;;;;;;;;;;;;8.64;90.24;99895.13;5021307;28;20001;-67
2023/12/31 03:47:13;;;;;;;;;;;;;;;8.63;89.85;99896.13;5018300;28;20331;-67
2023/12/31 03:49:38;;;;;;;;;;;;;;;8.59;90.07;99888.75;5017697;28;19929;-68
2023/12/31 03:52:03;;;;;;;;;;;;;;;8.61;90.01;99886.75;5023163;28;19920;-67
2023/12/31 03:54:28;;;;;;;;;;;;;;;8.62;90.04;99881.25;5011686;28;19925;-70
2023/12/31 03:56:54;;;;;;;;;;;;;;;8.61;90.03;99869.03;5023399;28;19921;-67
2023/12/31 03:59:19;;;;;;;;;;;;;;;8.61;90.21;99871.69;5017989;28;19964;-66
2023/12/31 04:01:44;;;;;;;;;;;;;;;8.59;89.69;99868.41;5013941;28;20013;-66
2023/12/31 04:04:10;;;;;;;;;;;;;;;8.65;89.75;99853.59;5018021;28;20325;-67
2023/12/31 04:06:35;;;;;;;;;;;;;;;8.66;90.18;99849.97;5014806;28;19953;-67
2023/12/31 04:09:01;;;;;;;;;;;;;;;8.62;90.02;99841.56;5019394;28;20394;-67
2023/12/31 04:11:26;;;;;;;;;;;;;;;8.64;90.16;99844.84;5016344;28;19925;-66
2023/12/31 04:13:51;;;;;;;;;;;;;;;8.63;90.11;99839.75;5018067;28;20279;-66
2023/12/31 04:16:16;;;;;;;;;;;;;;;8.72;89.91;99830.72;5019301;28;20305;-68
2023/12/31 04:18:41;;;;;;;;;;;;;;;8.66;90.07;99829.59;5012360;28;20386;-67
2023/12/31 04:21:07;;;;;;;;;;;;;;;8.62;89.84;99824.88;5014029;28;20305;-69
2023/12/31 04:23:32;;;;;;;;;;;;;;;8.64;90.10;99820.22;5019427;28;19925;-67
2023/12/31 04:25:57;;;;;;;;;;;;;;;8.62;90.34;99807.16;5021529;28;19917;-69
2023/12/31 04:28:22;;;;;;;;;;;;;;;8.59;90.03;99812.81;5013210;28;19967;-66
2023/12/31 04:30:47;;;;;;;;;;;;;;;8.55;90.07;99805.44;5012020;28;19921;-72
2023/12/31 04:33:13;;;;;;;;;;;;;;;8.56;90.11;99786.72;5013488;28;19921;-66
2023/12/31 04:35:38;;;;;;;;;;;;;;;8.61;90.35;99794.13;5017053;28;19928;-66
2023/12/31 04:38:03;;;;;;;;;;;;;;;8.52;90.13;99796.03;5018650;28;19970;-67
2023/12/31 04:40:28;;;;;;;;;;;;;;;8.50;89.84;99779.53;5012652;28;19929;-66
2023/12/31 04:42:54;;;;;;;;;;;;;;;8.51;89.89;99783.00;5017756;28;19998;-67
2023/12/31 04:45:19;;;;;;;;;;;;;;;8.48;89.92;99775.44;5017961;28;19925;-67
2023/12/31 04:47:44;;;;;;;;;;;;;;;8.51;90.22;99775.06;5018271;28;20024;-66
2023/12/31 04:50:10;;;;;;;;;;;;;;;8.47;90.20;99766.66;5018547;28;19936;-69
2023/12/31 04:52:35;;;;;;;;;;;;;;;8.53;90.05;99749.25;5017636;28;19922;-68
2023/12/31 04:55:01;;;;;;;;;;;;;;;8.47;90.15;99766.66;5016101;28;19917;-67
2023/12/31 04:57:26;;;;;;;;;;;;;;;8.49;89.79;99751.44;5011704;28;19925;-66
2023/12/31 04:59:51;;;;;;;;;;;;;;;8.47;89.88;99752.63;5018657;28;20002;-67
2023/12/31 05:02:17;;;;;;;;;;;;;;;8.47;90.22;99744.69;5013332;28;20338;-69
2023/12/31 05:04:42;;;;;;;;;;;;;;;8.47;90.21;99744.69;5018298;28;19922;-67
2023/12/31 05:07:11;;;;;;;;;;;;;;;8.46;90.32;99743.03;5011527;28;19921;-68
2023/12/31 05:09:36;;;;;;;;;;;;;;;8.44;90.44;99739.75;5018425;28;19937;-66
2023/12/31 05:12:01;;;;;;;;;;;;;;;8.48;90.63;99718.03;5018229;28;19924;-68
2023/12/31 05:14:27;;;;;;;;;;;;;;;8.47;90.57;99721.69;5010272;28;19917;-66
2023/12/31 05:16:52;;;;;;;;;;;;;;;8.46;90.54;99719.22;5014745;28;20720;-66
2023/12/31 05:19:17;;;;;;;;;;;;;;;8.47;90.99;99703.16;5009842;28;19921;-68
2023/12/31 05:21:42;;;;;;;;;;;;;;;8.47;90.99;99713.75;5016660;28;20046;-66
2023/12/31 05:24:08;;;;;;;;;;;;;;;8.52;90.83;99705.25;5011335;28;19927;-66
2023/12/31 05:26:33;;;;;;;;;;;;;;;8.54;91.11;99690.00;5014136;28;20518;-66
2023/12/31 05:28:58;;;;;;;;;;;;;;;8.56;91.16;99680.88;5015170;28;20413;-69
2023/12/31 05:31:23;;;;;;;;;;;;;;;8.61;91.01;99677.69;5015161;28;19913;-69
2023/12/31 05:33:49;;;;;;;;;;;;;;;8.60;90.84;99676.03;5020968;28;20003;-70
2023/12/31 05:36:14;;;;;;;;;;;;;;;8.60;90.63;99681.31;5020744;28;19913;-67
2023/12/31 05:38:39;;;;;;;;;;;;;;;8.60;90.88;99676.84;5015704;28;20727;-67
2023/12/31 05:41:04;;;;;;;;;;;;;;;8.62;90.84;99664.25;5014798;28;19913;-68
2023/12/31 05:43:29;;;;;;;;;;;;;;;8.66;90.77;99659.41;5018239;28;19928;-66
2023/12/31 05:45:55;;;;;;;;;;;;;;;8.62;90.50;99653.66;5013311;28;19917;-66
2023/12/31 05:48:21;;;;;;;;;;;;;;;8.65;90.66;99655.13;5009843;28;19917;-66
2023/12/31 05:50:46;;;;;;;;;;;;;;;8.67;90.57;99650.47;5010310;28;20303;-68
2023/12/31 05:53:12;;;;;;;;;;;;;;;8.67;90.76;99653.94;5010876;28;19914;-66
2023/12/31 05:55:37;;;;;;;;;;;;;;;8.70;90.77;99644.81;5018914;28;19952;-67
2023/12/31 05:58:03;;;;;;;;;;;;;;;8.67;90.81;99634.56;5016289;28;19921;-69
2023/12/31 06:00:28;;;;;;;;;;;;;;;8.66;91.01;99635.59;5012033;28;20405;-66
2023/12/31 06:02:53;;;;;;;;;;;;;;;8.68;90.56;99628.31;5014589;28;20044;-68
2023/12/31 06:05:18;;;;;;;;;;;;;;;8.65;90.54;99631.31;5016451;28;20508;-70
2023/12/31 06:07:44;;;;;;;;;;;;;;;8.65;91.03;99653.28;5009756;28;19996;-66
2023/12/31 06:10:09;;;;;;;;;;;;;;;8.64;90.92;99629.66;5018465;28;20015;-68
2023/12/31 06:12:34;;;;;;;;;;;;;;;8.63;91.03;99639.44;5005243;28;19917;-66
2023/12/31 06:14:59;;;;;;;;;;;;;;;8.65;91.21;99633.94;5014015;28;20413;-67
2023/12/31 06:17:25;;;;;;;;;;;;;;;8.64;91.06;99624.38;5011254;28;20024;-69
2023/12/31 06:19:50;;;;;;;;;;;;;;;8.63;91.04;99614.78;5018723;28;19968;-66
2023/12/31 06:22:16;;;;;;;;;;;;;;;8.62;91.07;99591.97;5019269;28;19921;-70
2023/12/31 06:24:41;;;;;;;;;;;;;;;8.60;90.96;99608.06;5011855;28;19918;-70
2023/12/31 06:27:06;;;;;;;;;;;;;;;8.60;91.20;99599.28;5015217;28;19932;-67
2023/12/31 06:29:31;;;;;;;;;;;;;;;8.63;90.96;99585.69;5014693;28;20802;-66
2023/12/31 06:31:57;;;;;;;;;;;;;;;8.63;91.06;99588.34;5015326;28;20338;-68
2023/12/31 06:34:22;;;;;;;;;;;;;;;8.63;91.28;99581.22;5013928;28;19925;-67
2023/12/31 06:36:47;;;;;;;;;;;;;;;8.61;90.82;99582.41;5014962;28;19921;-67
2023/12/31 06:39:12;;;;;;;;;;;;;;;8.61;91.17;99587.69;5012547;28;20684;-67
2023/12/31 06:41:38;;;;;;;;;;;;;;;8.62;90.88;99578.75;5016149;28;19922;-67
2023/12/31 06:44:03;;;;;;;;;;;;;;;8.66;91.25;99582.66;5016140;28;20516;-66
2023/12/31 06:46:28;;;;;;;;;;;;;;;8.66;90.96;99556.19;5019161;28;19936;-67
2023/12/31 06:48:54;;;;;;;;;;;;;;;8.70;90.92;99568.06;5008329;28;19925;-68
2023/12/31 06:51:19;;;;;;;;;;;;;;;8.71;90.87;99534.47;5010252;28;20040;-66
2023/12/31 06:53:44;;;;;;;;;;;;;;;8.78;90.77;99536.16;5005221;28;20564;-68
2023/12/31 06:56:09;;;;;;;;;;;;;;;8.79;90.72;99543.09;5011128;28;19925;-70
2023/12/31 06:58:35;;;;;;;;;;;;;;;8.76;90.54;99540.00;5010034;28;19952;-69
2023/12/31 07:01:01;;;;;;;;;;;;;;;8.72;90.67;99534.28;5008452;28;19931;-67
2023/12/31 07:03:26;;;;;;;;;;;;;;;8.73;90.64;99530.63;5018690;28;19925;-68
2023/12/31 07:05:51;;;;;;;;;;;;;;;8.71;90.63;99535.28;5013510;28;19918;-66
2023/12/31 07:08:16;;;;;;;;;;;;;;;8.73;90.83;99522.69;5010152;28;19924;-71
2023/12/31 07:10:42;;;;;;;;;;;;;;;8.76;90.78;99513.53;5008649;28;20354;-67
2023/12/31 07:13:07;;;;;;;;;;;;;;;8.79;90.64;99513.97;5016026;28;19917;-67
2023/12/31 07:15:33;;;;;;;;;;;;;;;8.81;90.62;99516.44;5015322;28;19925;-66
2023/12/31 07:17:59;;;;;;;;;;;;;;;8.87;90.77;99511.19;5007912;28;19928;-67
2023/12/31 07:20:24;;;;;;;;;;;;;;;8.85;90.64;99513.19;5014408;28;19928;-68
2023/12/31 07:22:49;;;;;;;;;;;;;;;8.87;90.54;99508.53;5011500;28;19929;-70
2023/12/31 07:25:14;;;;;;;;;;;;;;;8.89;90.51;99495.91;5012180;28;19928;-66
2023/12/31 07:27:39;;;;;;;;;;;;;;;8.90;90.48;99484.31;5013159;28;19928;-67
2023/12/31 07:30:05;;;;;;;;;;;;;;;8.95;90.33;99489.03;5015780;28;20553;-68
2023/12/31 07:32:31;;;;;;;;;;;;;;;8.98;90.30;99494.78;5023756;28;20382;-67
2023/12/31 07:34:56;;;;;;;;;;;;;;;9.02;90.25;99471.38;5022289;28;19953;-67
2023/12/31 07:37:21;;;;;;;;;;;;;;;9.13;89.78;99470.81;5013214;28;19921;-67
2023/12/31 07:39:47;;;;;;;;;;;;;;;9.16;89.79;99464.31;5017100;28;20612;-68
2023/12/31 07:42:12;;;;;;;;;;;;;;;9.17;89.33;99471.25;5011368;28;19921;-69
2023/12/31 07:44:37;;;;;;;;;;;;;;;9.19;89.45;99461.28;5018142;28;19947;-66
2023/12/31 07:47:03;;;;;;;;;;;;;;;9.23;89.17;99465.16;5018229;28;19921;-66
2023/12/31 07:49:30;;;;;;;;;;;;;;;9.27;89.22;99467.25;5018812;28;20354;-70
2023/12/31 07:51:55;;;;;;;;;;;;;;;9.30;89.10;99458.91;5017462;28;19960;-65
2023/12/31 07:54:20;;;;;;;;;;;;;;;9.34;88.96;99447.94;5015547;28;19955;-66
2023/12/31 07:56:45;;;;;;;;;;;;;;;9.36;88.90;99444.06;5016191;28;19921;-65
2023/12/31 07:59:11;;;;;;;;;;;;;;;9.42;88.66;99439.81;5017994;28;19920;-67
2023/12/31 08:01:36;;;;;;;;;;;;;;;9.45;88.46;99444.69;5014175;28;19921;-66
2023/12/31 08:04:01;;;;;;;;;;;;;;;9.48;88.92;99447.78;5018729;28;20505;-66
2023/12/31 08:06:26;;;;;;;;;;;;;;;9.53;88.40;99461.25;5012167;28;19932;-66
2023/12/31 08:08:52;;;;;;;;;;;;;;;9.56;88.27;99444.97;5015791;28;19937;-67
2023/12/31 08:11:18;;;;;;;;;;;;;;;9.57;88.69;99446.59;5017768;28;19991;-68
2023/12/31 08:13:44;;;;;;;;;;;;;;;9.57;88.67;99445.78;5014516;28;19922;-66
2023/12/31 08:16:09;;;;;;;;;;;;;;;9.63;88.27;99451.09;5019981;28;19925;-67
2023/12/31 08:18:34;;;;;;;;;;;;;;;9.67;88.58;99442.75;5017436;28;19928;-66
2023/12/31 08:20:59;;;;;;;;;;;;;;;9.73;88.28;99444.59;5019090;28;19928;-66
2023/12/31 08:23:24;;;;;;;;;;;;;;;9.78;88.23;99434.22;5017180;28;19960;-70
2023/12/31 08:25:50;;;;;;;;;;;;;;;9.79;88.12;99444.63;5019466;28;20315;-66
2023/12/31 08:28:15;;;;;;;;;;;;;;;9.83;87.91;99437.09;5014663;28;20390;-67
2023/12/31 08:30:40;;;;;;;;;;;;;;;9.87;88.24;99439.16;5009662;28;19930;-68
2023/12/31 08:33:05;;;;;;;;;;;;;;;9.94;87.88;99447.94;5015722;28;20020;-68
2023/12/31 08:35:30;;;;;;;;;;;;;;;10.01;87.39;99437.34;5017705;28;19921;-68
2023/12/31 08:37:56;;;;;;;;;;;;;;;10.02;87.38;99432.84;5017298;28;19920;-67
2023/12/31 08:40:21;;;;;;;;;;;;;;;10.11;87.04;99432.44;5017063;28;19994;-65
2023/12/31 08:42:46;;;;;;;;;;;;;;;10.08;86.93;99435.50;5016005;28;20461;-70
2023/12/31 08:45:11;;;;;;;;;;;;;;;10.08;87.13;99440.00;5016796;28;19988;-68
2023/12/31 08:47:38;;;;;;;;;;;;;;;10.01;87.29;99424.06;5015603;28;20384;-68
2023/12/31 08:50:08;;;;;;;;;;;;;;;10.00;87.65;99426.94;5015156;28;19988;-67
2023/12/31 08:52:33;;;;;;;;;;;;;;;9.89;87.80;99431.81;5017947;28;19967;-66
2023/12/31 08:54:58;;;;;;;;;;;;;;;9.88;88.13;99453.22;5010566;28;20390;-69
2023/12/31 08:57:24;;;;;;;;;;;;;;;9.80;88.61;99429.53;5016489;28;19917;-68
2023/12/31 08:59:49;;;;;;;;;;;;;;;9.79;88.95;99435.84;5015392;28;20098;-68
2023/12/31 09:02:15;;;;;;;;;;;;;;;9.72;89.33;99425.22;5013074;28;19921;-66
2023/12/31 09:04:40;;;;;;;;;;;;;;;9.65;89.93;99431.53;5013281;28;19925;-69
2023/12/31 09:07:05;;;;;;;;;;;;;;;9.63;90.04;99439.69;5018827;28;19925;-67
2023/12/31 09:09:30;;;;;;;;;;;;;;;9.55;90.31;99446.00;5015994;28;20070;-66
2023/12/31 09:11:56;;;;;;;;;;;;;;;9.37;91.26;99440.41;5014444;28;20001;-66
2023/12/31 09:14:21;;;;;;;;;;;;;;;9.22;91.88;99448.47;5014448;28;20597;-65
2023/12/31 09:16:46;;;;;;;;;;;;;;;9.16;92.76;99453.72;5014335;28;19925;-67
2023/12/31 09:19:12;;;;;;;;;;;;;;;8.99;93.33;99450.59;5015670;28;19963;-67
2023/12/31 09:21:37;;;;;;;;;;;;;;;8.86;94.41;99453.94;5010512;28;19933;-67
2023/12/31 09:24:02;;;;;;;;;;;;;;;8.81;94.85;99460.84;5014850;28;19917;-68
2023/12/31 09:26:27;;;;;;;;;;;;;;;8.85;95.08;99454.97;5011927;28;19917;-67
2023/12/31 09:28:52;;;;;;;;;;;;;;;8.93;95.36;99460.09;5015857;28;20781;-67
2023/12/31 09:31:20;;;;;;;;;;;;;;;8.91;95.97;99464.78;5010060;28;19924;-68
2023/12/31 09:33:45;;;;;;;;;;;;;;;8.97;95.67;99456.09;5010060;28;20387;-66
2023/12/31 09:36:11;;;;;;;;;;;;;;;8.99;95.59;99464.66;5007470;28;19978;-67
2023/12/31 09:38:36;;;;;;;;;;;;;;;9.04;95.18;99461.41;5011291;28;19921;-67
2023/12/31 09:41:04;;;;;;;;;;;;;;;9.04;95.15;99457.94;5006175;28;19974;-67
2023/12/31 09:43:30;;;;;;;;;;;;;;;9.05;95.23;99475.47;5019039;28;19921;-68
2023/12/31 09:45:56;;;;;;;;;;;;;;;9.09;94.99;99474.06;5015845;28;20042;-67
2023/12/31 09:48:22;;;;;;;;;;;;;;;9.11;94.87;99480.81;5019516;28;20517;-67
2023/12/31 09:50:48;;;;;;;;;;;;;;;9.11;94.89;99479.97;5005569;28;19929;-67
2023/12/31 09:53:16;;;;;;;;;;;;;;;9.13;94.45;99480.59;5005337;28;19990;-69
2023/12/31 09:55:41;;;;;;;;;;;;;;;9.10;94.39;99481.81;5011859;28;19925;-67
2023/12/31 09:58:08;;;;;;;;;;;;;;;9.05;94.74;99471.00;5007570;28;19921;-67
2023/12/31 10:00:33;;;;;;;;;;;;;;;9.12;94.27;99485.09;5000374;28;19921;-70
2023/12/31 10:02:58;;;;;;;;;;;;;;;9.10;94.07;99489.75;5011152;28;19987;-67
2023/12/31 10:05:25;;;;;;;;;;;;;;;9.14;93.65;99491.00;5013044;28;19967;-67
2023/12/31 10:07:51;;;;;;;;;;;;;;;9.19;92.96;99499.19;5009438;28;19925;-66
2023/12/31 10:10:18;;;;;;;;;;;;;;;9.23;92.65;99494.31;5012720;28;20000;-67
2023/12/31 10:12:43;;;;;;;;;;;;;;;9.26;92.18;99484.16;5011981;28;19917;-69
2023/12/31 10:15:09;;;;;;;;;;;;;;;9.26;91.96;99486.81;5013779;28;19932;-67
2023/12/31 10:17:36;;;;;;;;;;;;;;;9.21;91.83;99485.75;5011325;28;19932;-66
2023/12/31 10:20:02;;;;;;;;;;;;;;;9.21;91.42;99481.25;5011211;28;19921;-66
2023/12/31 10:22:28;;;;;;;;;;;;;;;9.21;91.45;99478.59;5008653;28;20004;-69
2023/12/31 10:24:55;;;;;;;;;;;;;;;9.18;90.88;99468.41;5010818;28;20015;-67
2023/12/31 10:27:20;;;;;;;;;;;;;;;9.21;91.09;99481.25;5012265;28;19995;-72
2023/12/31 10:29:45;;;;;;;;;;;;;;;9.22;90.66;99479.44;5015749;28;19983;-67
2023/12/31 10:32:10;;;;;;;;;;;;;;;9.26;89.78;99486.00;5017685;28;19917;-67
2023/12/31 10:34:36;;;;;;;;;;;;;;;9.17;90.20;99487.16;5013961;28;19956;-67
2023/12/31 10:37:05;;;;;;;;;;;;;;;9.13;90.55;99491.19;5015220;28;21106;-66
2023/12/31 10:39:32;;;;;;;;;;;;;;;8.94;90.82;99497.97;5020747;28;20394;-66
2023/12/31 10:41:58;;;;;;;;;;;;;;;8.84;91.90;99489.56;5021660;28;19925;-68
2023/12/31 10:44:24;;;;;;;;;;;;;;;8.61;92.70;99498.56;5019302;28;19921;-66
2023/12/31 10:46:52;;;;;;;;;;;;;;;8.53;93.24;99490.75;5014046;28;20409;-66
2023/12/31 10:49:19;;;;;;;;;;;;;;;8.58;93.73;99495.47;5016171;28;20412;-68
2023/12/31 10:51:46;;;;;;;;;;;;;;;8.66;93.93;99490.03;5019062;28;20011;-67
2023/12/31 10:54:15;;;;;;;;;;;;;;;8.72;93.94;99499.06;5013612;28;19924;-67
2023/12/31 10:56:41;;;;;;;;;;;;;;;8.76;93.54;99490.53;5013842;28;19925;-66
2023/12/31 10:59:07;;;;;;;;;;;;;;;8.83;93.64;99480.81;5018169;28;20082;-66
2023/12/31 11:01:32;;;;;;;;;;;;;;;8.84;93.22;99482.44;5009717;28;20374;-67
2023/12/31 11:03:57;;;;;;;;;;;;;;;8.84;93.21;99492.22;5016855;28;19921;-66
2023/12/31 11:06:25;;;;;;;;;;;;;;;8.86;93.41;99477.78;5014153;28;19987;-67
2023/12/31 11:08:51;;;;;;;;;;;;;;;8.88;93.07;99478.41;5017827;28;20007;-66
2023/12/31 11:11:18;;;;;;;;;;;;;;;8.92;92.77;99478.84;5019932;28;19917;-69
2023/12/31 11:13:46;;;;;;;;;;;;;;;8.91;92.67;99480.66;5016857;28;19929;-66
2023/12/31 11:16:24;;;;;;;;;;;;;;;8.93;92.40;99483.13;5027271;28;19971;-66
2023/12/31 11:18:56;;;;;;;;;;;;;;;8.86;92.81;99498.13;5016914;28;20011;-66
2023/12/31 11:21:37;;;;;;;;;;;;;;;8.73;92.73;99516.56;5018349;28;19956;-66
2023/12/31 11:24:02;;;;;;;;;;;;;;;8.35;94.72;99517.63;5011126;28;19921;-66
2023/12/31 11:26:28;;;;;;;;;;;;;;;8.10;96.49;99515.53;5015359;28;19921;-66
2023/12/31 11:28:53;;;;;;;;;;;;;;;8.02;98.57;99545.53;5022968;28;20305;-66
2023/12/31 11:31:19;;;;;;;;;;;;;;;8.05;99.40;99508.13;5012810;28;19921;-67
2023/12/31 11:33:44;;;;;;;;;;;;;;;8.25;99.75;99513.66;5010186;28;20580;-67
2023/12/31 11:36:13;;;;;;;;;;;;;;;8.50;99.54;99500.91;5008408;28;19921;-68
2023/12/31 11:38:52;;;;;;;;;;;;;;;8.62;98.88;99504.66;5008242;28;19913;-67
2023/12/31 11:41:18;;;;;;;;;;;;;;;8.72;97.51;99530.81;5013594;28;19933;-68
2023/12/31 11:43:44;;;;;;;;;;;;;;;8.80;96.21;99497.09;5008816;28;19925;-67
2023/12/31 11:46:10;;;;;;;;;;;;;;;8.81;95.65;99506.66;5015082;28;19971;-67
2023/12/31 11:48:37;;;;;;;;;;;;;;;8.86;95.50;99512.19;5014767;28;19921;-67
2023/12/31 11:51:03;;;;;;;;;;;;;;;8.93;94.93;99491.88;5021333;28;19966;-67
2023/12/31 11:53:30;;;;;;;;;;;;;;;9.06;94.77;99507.06;5011113;28;19921;-67
2023/12/31 11:55:59;;;;;;;;;;;;;;;9.15;93.97;99499.75;5014704;28;19914;-67
2023/12/31 11:58:28;;;;;;;;;;;;;;;9.30;93.69;99513.72;5018544;28;19921;-70
2023/12/31 12:00:54;;;;;;;;;;;;;;;9.35;92.99;99500.72;5008710;28;20398;-68
2023/12/31 12:03:19;;;;;;;;;;;;;;;9.44;92.73;99494.22;5007683;28;19979;-70
2023/12/31 12:05:50;;;;;;;;;;;;;;;9.51;92.05;99505.66;5012890;28;19960;-66
2023/12/31 12:08:16;;;;;;;;;;;;;;;9.58;91.98;99489.81;5014265;28;19917;-68
2023/12/31 12:10:42;;;;;;;;;;;;;;;9.65;91.52;99487.19;5021655;28;20469;-69
2023/12/31 12:13:07;;;;;;;;;;;;;;;9.62;90.29;99507.78;5013393;28;20611;-67
2023/12/31 12:15:36;;;;;;;;;;;;;;;9.66;87.84;99483.53;5011943;28;19986;-67
2023/12/31 12:18:02;;;;;;;;;;;;;;;9.66;86.71;99500.25;5009456;28;20031;-67
2023/12/31 12:20:28;;;;;;;;;;;;;;;9.54;85.76;99492.06;5015125;28;19929;-67
2023/12/31 12:22:53;;;;;;;;;;;;;;;9.54;85.22;99500.00;5015758;28;19975;-69
2023/12/31 12:25:19;;;;;;;;;;;;;;;9.58;84.65;99519.81;5018832;28;20390;-67
2023/12/31 12:27:45;;;;;;;;;;;;;;;9.68;83.95;99506.16;5022305;28;20409;-67
2023/12/31 12:30:10;;;;;;;;;;;;;;;9.78;83.31;99500.50;5018893;28;19929;-67
2023/12/31 12:32:35;;;;;;;;;;;;;;;9.87;82.11;99515.25;5008498;28;19972;-68
2023/12/31 12:35:02;;;;;;;;;;;;;;;9.96;81.31;99523.81;5012910;28;19922;-69
2023/12/31 12:37:29;;;;;;;;;;;;;;;9.94;81.04;99494.84;5013567;28;19939;-68
2023/12/31 12:39:55;;;;;;;;;;;;;;;10.01;80.91;99494.88;5010008;28;19957;-68
2023/12/31 12:42:23;;;;;;;;;;;;;;;9.93;79.66;99511.78;5013813;28;20014;-67
2023/12/31 12:44:49;;;;;;;;;;;;;;;9.81;79.70;99522.13;5017315;28;19927;-70